sensor_id;sensor_type;location;lat;lon;timestamp;P1;durP1;ratioP1;P2;durP2;ratioP2
7051;SDS011;3567;52.444;13.556;2022-11-18T00:01:14;38.83;;;26.52;;
7051;SDS011;3567;52.444;13.556;2022-11-18T00:03:41;33.30;;;23.92;;
7051;SDS011;3567;52.444;13.556;2022-11-18T00:06:11;37.97;;;27.13;;
7051;SDS011;3567;52.444;13.556;2022-11-18T00:08:38;37.25;;;25.77;;
7051;SDS011;3567;52.444;13.556;2022-11-18T00:11:08;35.17;;;25.40;;
7051;SDS011;3567;52.444;13.556;2022-11-18T00:16:31;36.03;;;25.75;;
7051;SDS011;3567;52.444;13.556;2022-11-18T00:18:56;37.78;;;26.73;;
7051;SDS011;3567;52.444;13.556;2022-11-18T00:21:22;35.45;;;25.38;;
7051;SDS011;3567;52.444;13.556;2022-11-18T00:23:47;35.83;;;26.35;;
7051;SDS011;3567;52.444;13.556;2022-11-18T00:26:13;37.95;;;27.27;;
7051;SDS011;3567;52.444;13.556;2022-11-18T00:28:39;37.97;;;26.42;;
7051;SDS011;3567;52.444;13.556;2022-11-18T00:31:07;38.83;;;27.52;;
7051;SDS011;3567;52.444;13.556;2022-11-18T00:33:34;40.10;;;27.08;;
7051;SDS011;3567;52.444;13.556;2022-11-18T00:36:01;38.85;;;27.85;;
7051;SDS011;3567;52.444;13.556;2022-11-18T00:38:28;37.45;;;26.63;;
7051;SDS011;3567;52.444;13.556;2022-11-18T00:43:25;42.47;;;27.40;;
7051;SDS011;3567;52.444;13.556;2022-11-18T00:45:51;36.05;;;26.13;;
7051;SDS011;3567;52.444;13.556;2022-11-18T00:48:16;36.50;;;26.33;;
7051;SDS011;3567;52.444;13.556;2022-11-18T00:50:45;33.53;;;24.42;;
7051;SDS011;3567;52.444;13.556;2022-11-18T00:53:12;35.05;;;25.48;;
7051;SDS011;3567;52.444;13.556;2022-11-18T00:55:38;36.40;;;26.55;;
7051;SDS011;3567;52.444;13.556;2022-11-18T00:58:03;33.95;;;24.77;;
7051;SDS011;3567;52.444;13.556;2022-11-18T01:00:28;36.47;;;25.35;;
7051;SDS011;3567;52.444;13.556;2022-11-18T01:02:53;35.47;;;25.45;;
7051;SDS011;3567;52.444;13.556;2022-11-18T01:05:19;32.53;;;24.65;;
7051;SDS011;3567;52.444;13.556;2022-11-18T01:07:44;36.15;;;24.67;;
7051;SDS011;3567;52.444;13.556;2022-11-18T01:10:10;33.42;;;24.45;;
7051;SDS011;3567;52.444;13.556;2022-11-18T01:12:35;36.40;;;26.40;;
7051;SDS011;3567;52.444;13.556;2022-11-18T01:15:19;37.13;;;25.80;;
7051;SDS011;3567;52.444;13.556;2022-11-18T01:17:44;32.33;;;24.08;;
7051;SDS011;3567;52.444;13.556;2022-11-18T01:20:10;39.72;;;25.67;;
7051;SDS011;3567;52.444;13.556;2022-11-18T01:22:35;33.20;;;24.27;;
7051;SDS011;3567;52.444;13.556;2022-11-18T01:25:01;33.35;;;24.35;;
7051;SDS011;3567;52.444;13.556;2022-11-18T01:27:26;34.55;;;24.27;;
7051;SDS011;3567;52.444;13.556;2022-11-18T01:29:51;32.40;;;23.20;;
7051;SDS011;3567;52.444;13.556;2022-11-18T01:32:17;30.25;;;22.67;;
7051;SDS011;3567;52.444;13.556;2022-11-18T01:34:42;27.80;;;22.27;;
7051;SDS011;3567;52.444;13.556;2022-11-18T01:37:07;27.52;;;22.25;;
7051;SDS011;3567;52.444;13.556;2022-11-18T01:39:33;26.77;;;20.13;;
7051;SDS011;3567;52.444;13.556;2022-11-18T01:41:58;24.98;;;21.13;;
7051;SDS011;3567;52.444;13.556;2022-11-18T01:47:20;25.10;;;20.35;;
7051;SDS011;3567;52.444;13.556;2022-11-18T01:49:46;30.13;;;21.48;;
7051;SDS011;3567;52.444;13.556;2022-11-18T01:52:11;24.40;;;21.13;;
7051;SDS011;3567;52.444;13.556;2022-11-18T01:54:39;25.50;;;21.17;;
7051;SDS011;3567;52.444;13.556;2022-11-18T01:57:08;26.00;;;21.42;;
7051;SDS011;3567;52.444;13.556;2022-11-18T01:59:41;27.75;;;20.27;;
7051;SDS011;3567;52.444;13.556;2022-11-18T02:02:09;29.10;;;22.05;;
7051;SDS011;3567;52.444;13.556;2022-11-18T02:04:38;28.65;;;21.33;;
7051;SDS011;3567;52.444;13.556;2022-11-18T02:07:06;28.45;;;22.23;;
7051;SDS011;3567;52.444;13.556;2022-11-18T02:09:32;28.75;;;21.33;;
7051;SDS011;3567;52.444;13.556;2022-11-18T02:11:59;29.55;;;21.88;;
7051;SDS011;3567;52.444;13.556;2022-11-18T02:14:26;29.70;;;22.73;;
7051;SDS011;3567;52.444;13.556;2022-11-18T02:22:34;29.00;;;22.10;;
7051;SDS011;3567;52.444;13.556;2022-11-18T02:25:20;27.35;;;21.10;;
7051;SDS011;3567;52.444;13.556;2022-11-18T02:36:56;30.55;;;22.63;;
7051;SDS011;3567;52.444;13.556;2022-11-18T02:39:35;31.73;;;22.48;;
7051;SDS011;3567;52.444;13.556;2022-11-18T02:42:08;29.95;;;22.45;;
7051;SDS011;3567;52.444;13.556;2022-11-18T02:44:37;31.23;;;22.88;;
7051;SDS011;3567;52.444;13.556;2022-11-18T02:47:07;33.88;;;23.95;;
7051;SDS011;3567;52.444;13.556;2022-11-18T02:49:39;33.05;;;24.02;;
7051;SDS011;3567;52.444;13.556;2022-11-18T02:52:08;30.05;;;23.70;;
7051;SDS011;3567;52.444;13.556;2022-11-18T02:54:36;28.40;;;22.50;;
7051;SDS011;3567;52.444;13.556;2022-11-18T02:57:05;29.27;;;22.73;;
7051;SDS011;3567;52.444;13.556;2022-11-18T02:59:32;30.52;;;22.92;;
7051;SDS011;3567;52.444;13.556;2022-11-18T03:01:58;30.33;;;23.58;;
7051;SDS011;3567;52.444;13.556;2022-11-18T03:04:23;27.95;;;21.92;;
7051;SDS011;3567;52.444;13.556;2022-11-18T03:07:01;30.63;;;21.80;;
7051;SDS011;3567;52.444;13.556;2022-11-18T03:22:20;28.52;;;23.48;;
7051;SDS011;3567;52.444;13.556;2022-11-18T03:24:54;29.40;;;23.52;;
7051;SDS011;3567;52.444;13.556;2022-11-18T03:27:29;35.17;;;23.65;;
7051;SDS011;3567;52.444;13.556;2022-11-18T03:30:04;27.92;;;23.23;;
7051;SDS011;3567;52.444;13.556;2022-11-18T03:32:32;30.05;;;24.23;;
7051;SDS011;3567;52.444;13.556;2022-11-18T03:35:04;31.48;;;23.58;;
7051;SDS011;3567;52.444;13.556;2022-11-18T03:37:33;32.47;;;23.83;;
7051;SDS011;3567;52.444;13.556;2022-11-18T03:40:07;36.45;;;26.00;;
7051;SDS011;3567;52.444;13.556;2022-11-18T03:42:38;27.58;;;22.98;;
7051;SDS011;3567;52.444;13.556;2022-11-18T03:45:21;36.45;;;25.48;;
7051;SDS011;3567;52.444;13.556;2022-11-18T03:48:10;35.03;;;24.50;;
7051;SDS011;3567;52.444;13.556;2022-11-18T03:50:49;29.50;;;23.00;;
7051;SDS011;3567;52.444;13.556;2022-11-18T03:53:19;31.38;;;23.98;;
7051;SDS011;3567;52.444;13.556;2022-11-18T03:55:50;36.03;;;25.48;;
7051;SDS011;3567;52.444;13.556;2022-11-18T03:58:30;36.25;;;24.83;;
7051;SDS011;3567;52.444;13.556;2022-11-18T04:01:10;31.08;;;23.65;;
7051;SDS011;3567;52.444;13.556;2022-11-18T04:03:40;35.08;;;26.55;;
7051;SDS011;3567;52.444;13.556;2022-11-18T04:06:50;40.05;;;26.17;;
7051;SDS011;3567;52.444;13.556;2022-11-18T04:09:18;37.10;;;26.08;;
7051;SDS011;3567;52.444;13.556;2022-11-18T04:11:50;35.53;;;25.52;;
7051;SDS011;3567;52.444;13.556;2022-11-18T04:14:28;38.20;;;27.50;;
7051;SDS011;3567;52.444;13.556;2022-11-18T04:16:56;34.60;;;26.70;;
7051;SDS011;3567;52.444;13.556;2022-11-18T04:19:21;37.20;;;26.98;;
7051;SDS011;3567;52.444;13.556;2022-11-18T04:21:47;38.65;;;26.75;;
7051;SDS011;3567;52.444;13.556;2022-11-18T04:24:12;34.75;;;26.88;;
7051;SDS011;3567;52.444;13.556;2022-11-18T04:26:38;39.35;;;28.65;;
7051;SDS011;3567;52.444;13.556;2022-11-18T04:29:03;39.08;;;28.65;;
7051;SDS011;3567;52.444;13.556;2022-11-18T04:31:28;44.10;;;28.65;;
7051;SDS011;3567;52.444;13.556;2022-11-18T04:33:54;43.70;;;29.55;;
7051;SDS011;3567;52.444;13.556;2022-11-18T04:36:19;43.20;;;29.83;;
7051;SDS011;3567;52.444;13.556;2022-11-18T04:38:45;42.75;;;29.58;;
7051;SDS011;3567;52.444;13.556;2022-11-18T04:41:10;44.28;;;29.17;;
7051;SDS011;3567;52.444;13.556;2022-11-18T04:43:36;44.15;;;29.80;;
7051;SDS011;3567;52.444;13.556;2022-11-18T04:46:02;43.65;;;31.05;;
7051;SDS011;3567;52.444;13.556;2022-11-18T04:48:28;51.63;;;31.00;;
7051;SDS011;3567;52.444;13.556;2022-11-18T04:50:55;49.63;;;31.85;;
7051;SDS011;3567;52.444;13.556;2022-11-18T04:53:21;52.90;;;32.05;;
7051;SDS011;3567;52.444;13.556;2022-11-18T04:55:46;43.65;;;29.35;;
7051;SDS011;3567;52.444;13.556;2022-11-18T04:58:12;50.45;;;32.92;;
7051;SDS011;3567;52.444;13.556;2022-11-18T05:00:37;48.33;;;32.17;;
7051;SDS011;3567;52.444;13.556;2022-11-18T05:03:02;48.72;;;31.45;;
7051;SDS011;3567;52.444;13.556;2022-11-18T05:05:28;47.58;;;31.95;;
7051;SDS011;3567;52.444;13.556;2022-11-18T05:07:53;52.28;;;34.15;;
7051;SDS011;3567;52.444;13.556;2022-11-18T05:10:18;48.85;;;31.38;;
7051;SDS011;3567;52.444;13.556;2022-11-18T05:12:43;52.15;;;32.28;;
7051;SDS011;3567;52.444;13.556;2022-11-18T05:15:16;49.42;;;32.90;;
7051;SDS011;3567;52.444;13.556;2022-11-18T05:17:42;54.80;;;33.80;;
7051;SDS011;3567;52.444;13.556;2022-11-18T05:20:08;60.00;;;36.17;;
7051;SDS011;3567;52.444;13.556;2022-11-18T05:22:34;51.42;;;33.90;;
7051;SDS011;3567;52.444;13.556;2022-11-18T05:25:00;52.33;;;33.50;;
7051;SDS011;3567;52.444;13.556;2022-11-18T05:27:25;54.22;;;34.28;;
7051;SDS011;3567;52.444;13.556;2022-11-18T05:29:51;52.75;;;33.10;;
7051;SDS011;3567;52.444;13.556;2022-11-18T05:32:16;59.15;;;36.42;;
7051;SDS011;3567;52.444;13.556;2022-11-18T05:34:42;57.35;;;34.65;;
7051;SDS011;3567;52.444;13.556;2022-11-18T05:37:08;56.50;;;34.28;;
7051;SDS011;3567;52.444;13.556;2022-11-18T05:39:33;59.67;;;34.65;;
7051;SDS011;3567;52.444;13.556;2022-11-18T05:41:59;49.15;;;32.33;;
7051;SDS011;3567;52.444;13.556;2022-11-18T05:44:43;50.80;;;31.55;;
7051;SDS011;3567;52.444;13.556;2022-11-18T05:47:09;48.90;;;32.00;;
7051;SDS011;3567;52.444;13.556;2022-11-18T05:49:34;46.53;;;31.17;;
7051;SDS011;3567;52.444;13.556;2022-11-18T05:51:59;45.47;;;31.42;;
7051;SDS011;3567;52.444;13.556;2022-11-18T05:54:25;45.15;;;29.45;;
7051;SDS011;3567;52.444;13.556;2022-11-18T05:56:51;44.88;;;29.08;;
7051;SDS011;3567;52.444;13.556;2022-11-18T05:59:17;42.85;;;28.63;;
7051;SDS011;3567;52.444;13.556;2022-11-18T06:06:56;40.78;;;28.23;;
7051;SDS011;3567;52.444;13.556;2022-11-18T06:09:24;39.85;;;27.33;;
7051;SDS011;3567;52.444;13.556;2022-11-18T06:11:55;39.33;;;25.65;;
7051;SDS011;3567;52.444;13.556;2022-11-18T06:14:36;40.25;;;27.55;;
7051;SDS011;3567;52.444;13.556;2022-11-18T06:17:07;42.60;;;27.23;;
7051;SDS011;3567;52.444;13.556;2022-11-18T06:19:36;36.08;;;25.70;;
7051;SDS011;3567;52.444;13.556;2022-11-18T06:22:02;40.78;;;24.33;;
7051;SDS011;3567;52.444;13.556;2022-11-18T06:24:28;34.72;;;25.33;;
7051;SDS011;3567;52.444;13.556;2022-11-18T06:26:54;34.20;;;23.92;;
7051;SDS011;3567;52.444;13.556;2022-11-18T06:29:19;35.20;;;24.70;;
7051;SDS011;3567;52.444;13.556;2022-11-18T06:31:45;38.35;;;25.42;;
7051;SDS011;3567;52.444;13.556;2022-11-18T06:34:11;33.85;;;23.50;;
7051;SDS011;3567;52.444;13.556;2022-11-18T06:36:36;31.00;;;21.40;;
7051;SDS011;3567;52.444;13.556;2022-11-18T06:39:02;32.85;;;22.70;;
7051;SDS011;3567;52.444;13.556;2022-11-18T06:41:28;31.95;;;22.35;;
7051;SDS011;3567;52.444;13.556;2022-11-18T06:43:54;31.85;;;21.75;;
7051;SDS011;3567;52.444;13.556;2022-11-18T06:46:19;32.22;;;22.67;;
7051;SDS011;3567;52.444;13.556;2022-11-18T06:49:03;32.58;;;21.80;;
7051;SDS011;3567;52.444;13.556;2022-11-18T06:51:29;29.67;;;21.00;;
7051;SDS011;3567;52.444;13.556;2022-11-18T06:53:54;30.15;;;21.23;;
7051;SDS011;3567;52.444;13.556;2022-11-18T06:56:20;30.67;;;21.40;;
7051;SDS011;3567;52.444;13.556;2022-11-18T06:58:46;33.75;;;21.02;;
7051;SDS011;3567;52.444;13.556;2022-11-18T07:01:17;31.92;;;20.98;;
7051;SDS011;3567;52.444;13.556;2022-11-18T07:03:48;34.42;;;22.70;;
7051;SDS011;3567;52.444;13.556;2022-11-18T07:06:15;30.48;;;20.65;;
7051;SDS011;3567;52.444;13.556;2022-11-18T07:08:45;30.65;;;22.20;;
7051;SDS011;3567;52.444;13.556;2022-11-18T07:11:13;33.90;;;22.30;;
7051;SDS011;3567;52.444;13.556;2022-11-18T07:13:40;32.10;;;21.15;;
7051;SDS011;3567;52.444;13.556;2022-11-18T07:16:06;31.08;;;20.83;;
7051;SDS011;3567;52.444;13.556;2022-11-18T07:18:37;32.53;;;21.65;;
7051;SDS011;3567;52.444;13.556;2022-11-18T07:21:07;34.15;;;22.95;;
7051;SDS011;3567;52.444;13.556;2022-11-18T07:23:35;33.80;;;22.65;;
7051;SDS011;3567;52.444;13.556;2022-11-18T07:26:01;30.70;;;21.25;;
7051;SDS011;3567;52.444;13.556;2022-11-18T07:28:27;31.80;;;21.40;;
7051;SDS011;3567;52.444;13.556;2022-11-18T07:30:59;31.13;;;21.05;;
7051;SDS011;3567;52.444;13.556;2022-11-18T07:33:28;32.78;;;21.77;;
7051;SDS011;3567;52.444;13.556;2022-11-18T07:35:54;33.13;;;20.52;;
7051;SDS011;3567;52.444;13.556;2022-11-18T07:38:20;32.15;;;21.98;;
7051;SDS011;3567;52.444;13.556;2022-11-18T07:40:45;35.00;;;21.27;;
7051;SDS011;3567;52.444;13.556;2022-11-18T07:43:10;29.00;;;20.70;;
7051;SDS011;3567;52.444;13.556;2022-11-18T07:45:36;31.50;;;21.02;;
7051;SDS011;3567;52.444;13.556;2022-11-18T07:48:01;36.55;;;21.52;;
7051;SDS011;3567;52.444;13.556;2022-11-18T07:50:27;27.55;;;18.80;;
7051;SDS011;3567;52.444;13.556;2022-11-18T07:52:56;30.40;;;21.10;;
7051;SDS011;3567;52.444;13.556;2022-11-18T07:55:21;29.67;;;20.30;;
7051;SDS011;3567;52.444;13.556;2022-11-18T07:57:47;29.05;;;20.90;;
7051;SDS011;3567;52.444;13.556;2022-11-18T08:00:12;29.35;;;21.80;;
7051;SDS011;3567;52.444;13.556;2022-11-18T08:02:38;30.02;;;21.55;;
7051;SDS011;3567;52.444;13.556;2022-11-18T08:05:04;33.33;;;20.23;;
7051;SDS011;3567;52.444;13.556;2022-11-18T08:07:29;30.60;;;21.50;;
7051;SDS011;3567;52.444;13.556;2022-11-18T08:09:55;33.47;;;21.73;;
7051;SDS011;3567;52.444;13.556;2022-11-18T08:12:20;29.65;;;21.33;;
7051;SDS011;3567;52.444;13.556;2022-11-18T08:14:45;29.75;;;20.40;;
7051;SDS011;3567;52.444;13.556;2022-11-18T08:17:11;30.92;;;21.42;;
7051;SDS011;3567;52.444;13.556;2022-11-18T08:19:36;30.52;;;21.92;;
7051;SDS011;3567;52.444;13.556;2022-11-18T08:22:01;28.50;;;20.27;;
7051;SDS011;3567;52.444;13.556;2022-11-18T08:24:27;31.27;;;21.02;;
7051;SDS011;3567;52.444;13.556;2022-11-18T08:26:52;30.00;;;20.42;;
7051;SDS011;3567;52.444;13.556;2022-11-18T08:29:18;27.92;;;19.95;;
7051;SDS011;3567;52.444;13.556;2022-11-18T08:31:43;30.38;;;21.60;;
7051;SDS011;3567;52.444;13.556;2022-11-18T08:34:08;31.52;;;20.15;;
7051;SDS011;3567;52.444;13.556;2022-11-18T08:36:35;25.20;;;20.17;;
7051;SDS011;3567;52.444;13.556;2022-11-18T08:39:02;26.63;;;19.45;;
7051;SDS011;3567;52.444;13.556;2022-11-18T08:44:05;28.02;;;19.80;;
7051;SDS011;3567;52.444;13.556;2022-11-18T08:46:32;28.80;;;21.10;;
7051;SDS011;3567;52.444;13.556;2022-11-18T08:48:58;25.98;;;19.80;;
7051;SDS011;3567;52.444;13.556;2022-11-18T08:51:23;25.52;;;19.15;;
7051;SDS011;3567;52.444;13.556;2022-11-18T08:53:49;27.77;;;19.67;;
7051;SDS011;3567;52.444;13.556;2022-11-18T08:56:15;27.27;;;19.15;;
7051;SDS011;3567;52.444;13.556;2022-11-18T08:58:45;28.08;;;20.20;;
7051;SDS011;3567;52.444;13.556;2022-11-18T09:01:11;29.48;;;19.20;;
7051;SDS011;3567;52.444;13.556;2022-11-18T09:03:36;26.70;;;19.42;;
7051;SDS011;3567;52.444;13.556;2022-11-18T09:08:31;25.63;;;18.75;;
7051;SDS011;3567;52.444;13.556;2022-11-18T09:10:57;24.67;;;17.05;;
7051;SDS011;3567;52.444;13.556;2022-11-18T09:13:22;29.65;;;20.42;;
7051;SDS011;3567;52.444;13.556;2022-11-18T09:15:47;22.90;;;17.15;;
7051;SDS011;3567;52.444;13.556;2022-11-18T09:18:13;26.23;;;18.58;;
7051;SDS011;3567;52.444;13.556;2022-11-18T09:20:38;26.50;;;17.95;;
7051;SDS011;3567;52.444;13.556;2022-11-18T09:23:03;27.05;;;18.92;;
7051;SDS011;3567;52.444;13.556;2022-11-18T09:25:29;24.90;;;17.88;;
7051;SDS011;3567;52.444;13.556;2022-11-18T09:27:55;29.17;;;18.83;;
7051;SDS011;3567;52.444;13.556;2022-11-18T09:30:20;27.88;;;18.48;;
7051;SDS011;3567;52.444;13.556;2022-11-18T09:32:46;23.48;;;17.20;;
7051;SDS011;3567;52.444;13.556;2022-11-18T09:35:12;25.58;;;16.30;;
7051;SDS011;3567;52.444;13.556;2022-11-18T09:37:38;23.85;;;16.55;;
7051;SDS011;3567;52.444;13.556;2022-11-18T09:40:03;25.33;;;16.45;;
7051;SDS011;3567;52.444;13.556;2022-11-18T09:47:34;22.85;;;15.38;;
7051;SDS011;3567;52.444;13.556;2022-11-18T09:50:13;21.77;;;16.05;;
7051;SDS011;3567;52.444;13.556;2022-11-18T09:55:39;20.80;;;15.48;;
7051;SDS011;3567;52.444;13.556;2022-11-18T09:58:05;19.98;;;14.15;;
7051;SDS011;3567;52.444;13.556;2022-11-18T10:00:31;17.98;;;13.73;;
7051;SDS011;3567;52.444;13.556;2022-11-18T10:03:00;23.25;;;15.48;;
7051;SDS011;3567;52.444;13.556;2022-11-18T10:08:23;17.77;;;12.50;;
7051;SDS011;3567;52.444;13.556;2022-11-18T10:11:00;15.25;;;11.02;;
7051;SDS011;3567;52.444;13.556;2022-11-18T10:13:47;14.95;;;10.98;;
7051;SDS011;3567;52.444;13.556;2022-11-18T10:16:23;13.65;;;10.45;;
7051;SDS011;3567;52.444;13.556;2022-11-18T10:24:32;13.35;;;9.95;;
7051;SDS011;3567;52.444;13.556;2022-11-18T10:27:10;13.68;;;10.57;;
7051;SDS011;3567;52.444;13.556;2022-11-18T10:29:37;14.63;;;10.60;;
7051;SDS011;3567;52.444;13.556;2022-11-18T10:32:13;15.75;;;11.90;;
7051;SDS011;3567;52.444;13.556;2022-11-18T10:34:48;16.25;;;11.57;;
7051;SDS011;3567;52.444;13.556;2022-11-18T10:40:26;16.60;;;11.45;;
7051;SDS011;3567;52.444;13.556;2022-11-18T10:42:53;16.60;;;12.32;;
7051;SDS011;3567;52.444;13.556;2022-11-18T10:50:37;15.18;;;11.38;;
7051;SDS011;3567;52.444;13.556;2022-11-18T10:56:24;12.43;;;10.05;;
7051;SDS011;3567;52.444;13.556;2022-11-18T10:58:44;14.82;;;10.88;;
7051;SDS011;3567;52.444;13.556;2022-11-18T11:06:36;13.98;;;9.38;;
7051;SDS011;3567;52.444;13.556;2022-11-18T11:11:31;15.18;;;9.98;;
7051;SDS011;3567;52.444;13.556;2022-11-18T11:13:59;13.93;;;9.88;;
7051;SDS011;3567;52.444;13.556;2022-11-18T11:16:30;11.57;;;9.55;;
7051;SDS011;3567;52.444;13.556;2022-11-18T11:19:02;14.00;;;10.18;;
7051;SDS011;3567;52.444;13.556;2022-11-18T11:21:33;11.35;;;9.43;;
7051;SDS011;3567;52.444;13.556;2022-11-18T11:23:58;11.80;;;10.60;;
7051;SDS011;3567;52.444;13.556;2022-11-18T11:28:54;13.18;;;9.32;;
7051;SDS011;3567;52.444;13.556;2022-11-18T11:31:56;13.82;;;10.77;;
7051;SDS011;3567;52.444;13.556;2022-11-18T11:36:54;14.02;;;10.85;;
7051;SDS011;3567;52.444;13.556;2022-11-18T11:45:12;16.50;;;9.73;;
7051;SDS011;3567;52.444;13.556;2022-11-18T11:50:29;12.65;;;10.02;;
7051;SDS011;3567;52.444;13.556;2022-11-18T12:01:32;11.43;;;8.68;;
7051;SDS011;3567;52.444;13.556;2022-11-18T12:06:55;10.02;;;8.40;;
7051;SDS011;3567;52.444;13.556;2022-11-18T12:14:59;10.98;;;8.35;;
7051;SDS011;3567;52.444;13.556;2022-11-18T12:17:59;11.60;;;8.77;;
7051;SDS011;3567;52.444;13.556;2022-11-18T12:20:36;11.60;;;8.55;;
7051;SDS011;3567;52.444;13.556;2022-11-18T12:25:49;11.98;;;9.05;;
7051;SDS011;3567;52.444;13.556;2022-11-18T12:28:38;10.15;;;8.15;;
7051;SDS011;3567;52.444;13.556;2022-11-18T12:33:48;7.78;;;6.90;;
7051;SDS011;3567;52.444;13.556;2022-11-18T12:36:26;8.15;;;6.88;;
7051;SDS011;3567;52.444;13.556;2022-11-18T12:39:45;8.60;;;7.40;;
7051;SDS011;3567;52.444;13.556;2022-11-18T12:44:34;8.65;;;7.38;;
7051;SDS011;3567;52.444;13.556;2022-11-18T12:47:01;7.30;;;6.57;;
7051;SDS011;3567;52.444;13.556;2022-11-18T12:51:57;8.38;;;7.35;;
7051;SDS011;3567;52.444;13.556;2022-11-18T12:54:29;10.65;;;6.85;;
7051;SDS011;3567;52.444;13.556;2022-11-18T12:57:47;9.73;;;6.20;;
7051;SDS011;3567;52.444;13.556;2022-11-18T12:59:54;8.52;;;5.93;;
7051;SDS011;3567;52.444;13.556;2022-11-18T13:02:22;7.38;;;6.15;;
7051;SDS011;3567;52.444;13.556;2022-11-18T13:05:02;7.18;;;6.28;;
7051;SDS011;3567;52.444;13.556;2022-11-18T13:07:56;8.10;;;6.65;;
7051;SDS011;3567;52.444;13.556;2022-11-18T13:13:11;6.38;;;5.82;;
7051;SDS011;3567;52.444;13.556;2022-11-18T13:15:43;6.43;;;5.63;;
7051;SDS011;3567;52.444;13.556;2022-11-18T13:18:28;6.75;;;6.05;;
7051;SDS011;3567;52.444;13.556;2022-11-18T13:20:55;6.85;;;5.85;;
7051;SDS011;3567;52.444;13.556;2022-11-18T13:23:26;6.57;;;5.75;;
7051;SDS011;3567;52.444;13.556;2022-11-18T13:26:18;5.43;;;4.88;;
7051;SDS011;3567;52.444;13.556;2022-11-18T13:31:35;5.03;;;4.47;;
7051;SDS011;3567;52.444;13.556;2022-11-18T13:34:14;8.32;;;4.97;;
7051;SDS011;3567;52.444;13.556;2022-11-18T13:36:45;4.75;;;4.35;;
7051;SDS011;3567;52.444;13.556;2022-11-18T13:39:33;4.40;;;4.00;;
7051;SDS011;3567;52.444;13.556;2022-11-18T13:44:26;4.82;;;4.43;;
7051;SDS011;3567;52.444;13.556;2022-11-18T13:47:12;4.80;;;4.40;;
7051;SDS011;3567;52.444;13.556;2022-11-18T13:52:38;4.53;;;4.18;;
7051;SDS011;3567;52.444;13.556;2022-11-18T13:55:07;6.30;;;4.28;;
7051;SDS011;3567;52.444;13.556;2022-11-18T13:57:39;5.43;;;4.55;;
7051;SDS011;3567;52.444;13.556;2022-11-18T14:00:06;4.68;;;4.28;;
7051;SDS011;3567;52.444;13.556;2022-11-18T14:02:52;4.75;;;4.30;;
7051;SDS011;3567;52.444;13.556;2022-11-18T14:05:20;5.22;;;4.70;;
7051;SDS011;3567;52.444;13.556;2022-11-18T14:08:03;5.93;;;5.32;;
7051;SDS011;3567;52.444;13.556;2022-11-18T14:10:40;6.45;;;5.78;;
7051;SDS011;3567;52.444;13.556;2022-11-18T14:13:19;5.05;;;4.55;;
7051;SDS011;3567;52.444;13.556;2022-11-18T14:15:46;6.05;;;5.43;;
7051;SDS011;3567;52.444;13.556;2022-11-18T14:18:31;11.43;;;5.47;;
7051;SDS011;3567;52.444;13.556;2022-11-18T14:20:59;9.55;;;6.65;;
7051;SDS011;3567;52.444;13.556;2022-11-18T14:23:27;7.35;;;6.43;;
7051;SDS011;3567;52.444;13.556;2022-11-18T14:25:55;7.22;;;6.32;;
7051;SDS011;3567;52.444;13.556;2022-11-18T14:28:27;5.32;;;4.82;;
7051;SDS011;3567;52.444;13.556;2022-11-18T14:33:41;8.05;;;3.88;;
7051;SDS011;3567;52.444;13.556;2022-11-18T14:41:09;3.33;;;3.03;;
7051;SDS011;3567;52.444;13.556;2022-11-18T14:43:36;5.63;;;3.95;;
7051;SDS011;3567;52.444;13.556;2022-11-18T14:46:03;3.65;;;3.35;;
7051;SDS011;3567;52.444;13.556;2022-11-18T14:48:30;4.75;;;3.65;;
7051;SDS011;3567;52.444;13.556;2022-11-18T14:50:58;2.92;;;2.72;;
7051;SDS011;3567;52.444;13.556;2022-11-18T14:53:24;2.47;;;2.30;;
7051;SDS011;3567;52.444;13.556;2022-11-18T14:55:50;3.17;;;2.80;;
7051;SDS011;3567;52.444;13.556;2022-11-18T14:58:18;3.65;;;2.55;;
7051;SDS011;3567;52.444;13.556;2022-11-18T15:00:45;3.90;;;3.60;;
7051;SDS011;3567;52.444;13.556;2022-11-18T15:03:12;4.78;;;3.08;;
7051;SDS011;3567;52.444;13.556;2022-11-18T15:05:37;3.40;;;3.10;;
7051;SDS011;3567;52.444;13.556;2022-11-18T15:08:03;3.28;;;2.75;;
7051;SDS011;3567;52.444;13.556;2022-11-18T15:10:29;5.00;;;2.83;;
7051;SDS011;3567;52.444;13.556;2022-11-18T15:12:55;3.30;;;2.97;;
7051;SDS011;3567;52.444;13.556;2022-11-18T15:15:20;2.95;;;2.67;;
7051;SDS011;3567;52.444;13.556;2022-11-18T15:17:46;3.65;;;3.35;;
7051;SDS011;3567;52.444;13.556;2022-11-18T15:20:11;2.97;;;2.78;;
7051;SDS011;3567;52.444;13.556;2022-11-18T15:22:39;5.80;;;3.50;;
7051;SDS011;3567;52.444;13.556;2022-11-18T15:25:05;3.70;;;3.17;;
7051;SDS011;3567;52.444;13.556;2022-11-18T15:27:31;3.70;;;3.28;;
7051;SDS011;3567;52.444;13.556;2022-11-18T15:29:56;5.07;;;4.22;;
7051;SDS011;3567;52.444;13.556;2022-11-18T15:32:22;4.45;;;4.05;;
7051;SDS011;3567;52.444;13.556;2022-11-18T15:34:47;7.22;;;4.60;;
7051;SDS011;3567;52.444;13.556;2022-11-18T15:37:12;4.63;;;4.07;;
7051;SDS011;3567;52.444;13.556;2022-11-18T15:39:38;3.97;;;3.60;;
7051;SDS011;3567;52.444;13.556;2022-11-18T15:42:03;4.97;;;3.55;;
7051;SDS011;3567;52.444;13.556;2022-11-18T15:44:29;4.32;;;3.55;;
7051;SDS011;3567;52.444;13.556;2022-11-18T15:46:54;4.40;;;3.90;;
7051;SDS011;3567;52.444;13.556;2022-11-18T15:49:21;7.55;;;4.38;;
7051;SDS011;3567;52.444;13.556;2022-11-18T15:51:47;5.30;;;4.10;;
7051;SDS011;3567;52.444;13.556;2022-11-18T15:54:12;5.75;;;4.80;;
7051;SDS011;3567;52.444;13.556;2022-11-18T15:56:37;5.90;;;4.80;;
7051;SDS011;3567;52.444;13.556;2022-11-18T15:59:04;8.25;;;5.50;;
7051;SDS011;3567;52.444;13.556;2022-11-18T16:01:35;10.57;;;6.40;;
7051;SDS011;3567;52.444;13.556;2022-11-18T16:04:03;7.68;;;5.78;;
7051;SDS011;3567;52.444;13.556;2022-11-18T16:06:29;7.97;;;5.47;;
7051;SDS011;3567;52.444;13.556;2022-11-18T16:08:55;5.57;;;4.15;;
7051;SDS011;3567;52.444;13.556;2022-11-18T16:11:21;6.18;;;4.13;;
7051;SDS011;3567;52.444;13.556;2022-11-18T16:14:06;4.82;;;4.05;;
7051;SDS011;3567;52.444;13.556;2022-11-18T16:16:33;6.18;;;4.32;;
7051;SDS011;3567;52.444;13.556;2022-11-18T16:19:00;4.50;;;4.07;;
7051;SDS011;3567;52.444;13.556;2022-11-18T16:21:31;4.38;;;3.63;;
7051;SDS011;3567;52.444;13.556;2022-11-18T16:23:59;8.43;;;4.72;;
7051;SDS011;3567;52.444;13.556;2022-11-18T16:26:26;6.97;;;5.47;;
7051;SDS011;3567;52.444;13.556;2022-11-18T16:28:54;8.75;;;6.18;;
7051;SDS011;3567;52.444;13.556;2022-11-18T16:31:20;9.20;;;5.93;;
7051;SDS011;3567;52.444;13.556;2022-11-18T16:34:06;22.42;;;12.45;;
7051;SDS011;3567;52.444;13.556;2022-11-18T16:36:34;41.45;;;18.08;;
7051;SDS011;3567;52.444;13.556;2022-11-18T16:39:07;33.47;;;15.50;;
7051;SDS011;3567;52.444;13.556;2022-11-18T16:41:36;39.25;;;18.23;;
7051;SDS011;3567;52.444;13.556;2022-11-18T16:44:09;33.03;;;16.13;;
7051;SDS011;3567;52.444;13.556;2022-11-18T16:46:38;27.20;;;16.42;;
7051;SDS011;3567;52.444;13.556;2022-11-18T16:49:05;35.08;;;16.52;;
7051;SDS011;3567;52.444;13.556;2022-11-18T16:51:35;40.63;;;16.83;;
7051;SDS011;3567;52.444;13.556;2022-11-18T16:54:01;30.98;;;14.98;;
7051;SDS011;3567;52.444;13.556;2022-11-18T16:56:29;23.05;;;12.18;;
7051;SDS011;3567;52.444;13.556;2022-11-18T16:59:06;23.20;;;12.10;;
7051;SDS011;3567;52.444;13.556;2022-11-18T17:01:36;28.80;;;14.80;;
7051;SDS011;3567;52.444;13.556;2022-11-18T17:04:01;26.98;;;17.23;;
7051;SDS011;3567;52.444;13.556;2022-11-18T17:06:27;24.02;;;17.08;;
7051;SDS011;3567;52.444;13.556;2022-11-18T17:08:54;16.08;;;11.57;;
7051;SDS011;3567;52.444;13.556;2022-11-18T17:11:20;17.00;;;11.70;;
7051;SDS011;3567;52.444;13.556;2022-11-18T17:13:45;15.15;;;10.23;;